Sivas Nuri Demirağ Airport

LTAR · 錫瓦斯省, 土耳其

罗盘
风向 的 风向 120° Sivas Nuri Demirağ Airport 1/19
风: 8 kt, 3 beaufort

2 kt

8 kt
改变
0 ft 1.000 2.000 3.000 4.000 5.000
CAVOK
METAR LTAR 020050Z 12008KT CAVOK 01/M07 Q1016 RMK RWY19 VRB02KT

METAR Sivas Nuri Demirağ Airport - LTAR/VAS

Sivas Nuri Demirağ Airport是,土耳其中的小机场。 该机场位于纬度39,81380和经度36,90350。 该机场有一条跑道: 1/19. 本场的ICAO机场代码为LTAR。 该机场的IATA代码为VAS。 机场在Ankara FIR中。

该航空气象观测是针对Sivas Nuri Demirağ Airport在2024年3月2日 03:50, 当地时间进行的。

机场观察

风向为120°,速度为8 kt。

天气为CAVOK。这意味着在5.000 ft或MSA(最低安全高度)以下(以较高者为准)以下没有云。这也意味着没有观测到积雨云或高耸的积云,可见度为10 km 或者更多或更高。此外,不会有雾,降雨或其他重要天气。

温度为1 °C,阵风为-5 °C。 露点为-7 °C,相对湿度为56%。 海平面上的气压为1016 hPa (QNH)。

白天

今天,太阳从07:03升起,在18:25降落。 这适用于Sivas Nuri Demirağ Airport,世界夏令时可能有所不同。 当地时间与世界标准时间之间的时差为+3 小时。 当前,没有夏令时有效。

公司介绍

我们没有关于这个机场的公司信息。

体会

到Vliegles.nl去找飞行课程,跳伞和其他飞行体验。 浏览页面,了解Sivas Nuri Demirağ Airport附近所有可用的活动。 你也可以使用搜索功能来寻找你所在地附近的特定飞行课程、跳伞或其他飞行体验。

跑道

Id 标题 侧风 逆风 侧风 %
1/19 018°-198° 8 kt 2 kt 98 %

逆风成分最大的方向会被突出显示,并用于横风计算。 这并不一定意味着这个方向在使用。

温度 & 天气

温度 1 °C
露点 -7 °C
相对湿度 56%
风寒 -5 °C
Kp-index 0 (0-9)

评论

VRB02KT未知降水 开始于 02, 结束于
RWY19

白天

日出
07:03 (2:50)
中午
12:44
日落
18:25

小工具

你想在你的网站上有一个关于Sivas Nuri Demirağ Airport的当前航空天气(METAR)的小部件吗?

显示HTML代码
?>